sensor_id;sensor_type;location;lat;lon;timestamp;P1;durP1;ratioP1;P2;durP2;ratioP2
32407;SDS011;18869;55.970;37.502;2023-04-25T00:02:06;9.83;;;6.97;;
32407;SDS011;18869;55.970;37.502;2023-04-25T00:04:34;13.43;;;6.73;;
32407;SDS011;18869;55.970;37.502;2023-04-25T00:07:04;10.43;;;6.20;;
32407;SDS011;18869;55.970;37.502;2023-04-25T00:09:31;10.57;;;6.40;;
32407;SDS011;18869;55.970;37.502;2023-04-25T00:12:00;9.80;;;5.77;;
32407;SDS011;18869;55.970;37.502;2023-04-25T00:14:28;10.17;;;6.47;;
32407;SDS011;18869;55.970;37.502;2023-04-25T00:17:01;10.10;;;6.60;;
32407;SDS011;18869;55.970;37.502;2023-04-25T00:19:29;8.93;;;6.33;;
32407;SDS011;18869;55.970;37.502;2023-04-25T00:21:58;10.23;;;6.37;;
32407;SDS011;18869;55.970;37.502;2023-04-25T00:24:26;15.53;;;7.27;;
32407;SDS011;18869;55.970;37.502;2023-04-25T00:26:54;10.37;;;6.60;;
32407;SDS011;18869;55.970;37.502;2023-04-25T00:29:21;12.13;;;6.77;;
32407;SDS011;18869;55.970;37.502;2023-04-25T00:31:49;11.40;;;7.53;;
32407;SDS011;18869;55.970;37.502;2023-04-25T00:34:18;13.33;;;7.53;;
32407;SDS011;18869;55.970;37.502;2023-04-25T00:36:46;16.87;;;7.03;;
32407;SDS011;18869;55.970;37.502;2023-04-25T00:39:14;15.23;;;6.83;;
32407;SDS011;18869;55.970;37.502;2023-04-25T00:41:42;15.17;;;7.13;;
32407;SDS011;18869;55.970;37.502;2023-04-25T00:44:10;16.27;;;6.70;;
32407;SDS011;18869;55.970;37.502;2023-04-25T00:46:40;12.67;;;6.53;;
32407;SDS011;18869;55.970;37.502;2023-04-25T00:49:08;12.77;;;6.60;;
32407;SDS011;18869;55.970;37.502;2023-04-25T00:51:42;14.63;;;6.63;;
32407;SDS011;18869;55.970;37.502;2023-04-25T00:54:11;11.53;;;6.57;;
32407;SDS011;18869;55.970;37.502;2023-04-25T00:56:40;10.73;;;6.30;;
32407;SDS011;18869;55.970;37.502;2023-04-25T00:59:08;16.97;;;7.23;;
32407;SDS011;18869;55.970;37.502;2023-04-25T01:01:38;11.93;;;7.50;;
32407;SDS011;18869;55.970;37.502;2023-04-25T01:04:06;13.67;;;7.57;;
32407;SDS011;18869;55.970;37.502;2023-04-25T01:06:34;11.73;;;6.97;;
32407;SDS011;18869;55.970;37.502;2023-04-25T01:09:04;12.27;;;6.67;;
32407;SDS011;18869;55.970;37.502;2023-04-25T01:11:32;15.30;;;7.73;;
32407;SDS011;18869;55.970;37.502;2023-04-25T01:14:00;14.73;;;7.53;;
32407;SDS011;18869;55.970;37.502;2023-04-25T01:16:28;11.47;;;6.53;;
32407;SDS011;18869;55.970;37.502;2023-04-25T01:18:56;11.13;;;6.53;;
32407;SDS011;18869;55.970;37.502;2023-04-25T01:21:26;14.13;;;6.87;;
32407;SDS011;18869;55.970;37.502;2023-04-25T01:23:55;10.90;;;6.47;;
32407;SDS011;18869;55.970;37.502;2023-04-25T01:26:25;12.90;;;7.23;;
32407;SDS011;18869;55.970;37.502;2023-04-25T01:28:53;9.13;;;5.97;;
32407;SDS011;18869;55.970;37.502;2023-04-25T01:31:21;13.00;;;6.83;;
32407;SDS011;18869;55.970;37.502;2023-04-25T01:33:49;8.53;;;6.00;;
32407;SDS011;18869;55.970;37.502;2023-04-25T01:36:17;11.17;;;6.20;;
32407;SDS011;18869;55.970;37.502;2023-04-25T01:38:47;12.63;;;6.77;;
32407;SDS011;18869;55.970;37.502;2023-04-25T01:41:14;13.93;;;6.90;;
32407;SDS011;18869;55.970;37.502;2023-04-25T01:43:43;11.17;;;6.77;;
32407;SDS011;18869;55.970;37.502;2023-04-25T01:46:11;11.03;;;6.90;;
32407;SDS011;18869;55.970;37.502;2023-04-25T01:48:40;11.67;;;6.77;;
32407;SDS011;18869;55.970;37.502;2023-04-25T01:51:08;17.40;;;7.40;;
32407;SDS011;18869;55.970;37.502;2023-04-25T01:53:37;13.00;;;7.40;;
32407;SDS011;18869;55.970;37.502;2023-04-25T01:56:07;11.70;;;6.57;;
32407;SDS011;18869;55.970;37.502;2023-04-25T01:58:35;12.37;;;6.90;;
32407;SDS011;18869;55.970;37.502;2023-04-25T02:01:03;12.63;;;7.13;;
32407;SDS011;18869;55.970;37.502;2023-04-25T02:03:31;11.07;;;6.63;;
32407;SDS011;18869;55.970;37.502;2023-04-25T02:05:59;19.67;;;8.07;;
32407;SDS011;18869;55.970;37.502;2023-04-25T02:08:28;13.20;;;7.23;;
32407;SDS011;18869;55.970;37.502;2023-04-25T02:10:58;15.60;;;8.10;;
32407;SDS011;18869;55.970;37.502;2023-04-25T02:13:30;19.73;;;8.63;;
32407;SDS011;18869;55.970;37.502;2023-04-25T02:15:58;14.23;;;8.63;;
32407;SDS011;18869;55.970;37.502;2023-04-25T02:18:25;14.67;;;8.07;;
32407;SDS011;18869;55.970;37.502;2023-04-25T02:20:53;13.00;;;8.87;;
32407;SDS011;18869;55.970;37.502;2023-04-25T02:23:21;15.87;;;7.83;;
32407;SDS011;18869;55.970;37.502;2023-04-25T02:25:48;15.77;;;8.03;;
32407;SDS011;18869;55.970;37.502;2023-04-25T02:28:16;16.03;;;8.10;;
32407;SDS011;18869;55.970;37.502;2023-04-25T02:30:46;12.43;;;8.47;;
32407;SDS011;18869;55.970;37.502;2023-04-25T02:33:13;14.53;;;8.47;;
32407;SDS011;18869;55.970;37.502;2023-04-25T02:35:42;13.00;;;8.27;;
32407;SDS011;18869;55.970;37.502;2023-04-25T02:38:10;14.10;;;8.70;;
32407;SDS011;18869;55.970;37.502;2023-04-25T02:40:39;20.13;;;9.70;;
32407;SDS011;18869;55.970;37.502;2023-04-25T02:43:07;20.67;;;9.27;;
32407;SDS011;18869;55.970;37.502;2023-04-25T02:45:35;12.83;;;8.63;;
32407;SDS011;18869;55.970;37.502;2023-04-25T02:48:05;15.13;;;7.97;;
32407;SDS011;18869;55.970;37.502;2023-04-25T02:50:32;17.70;;;8.23;;
32407;SDS011;18869;55.970;37.502;2023-04-25T02:53:00;14.03;;;8.00;;
32407;SDS011;18869;55.970;37.502;2023-04-25T02:55:29;17.27;;;8.77;;
32407;SDS011;18869;55.970;37.502;2023-04-25T02:57:58;12.70;;;8.73;;
32407;SDS011;18869;55.970;37.502;2023-04-25T03:00:29;19.30;;;8.93;;
32407;SDS011;18869;55.970;37.502;2023-04-25T03:02:57;16.10;;;9.17;;
32407;SDS011;18869;55.970;37.502;2023-04-25T03:05:28;15.57;;;8.73;;
32407;SDS011;18869;55.970;37.502;2023-04-25T03:07:56;19.47;;;9.30;;
32407;SDS011;18869;55.970;37.502;2023-04-25T03:10:25;11.70;;;6.93;;
32407;SDS011;18869;55.970;37.502;2023-04-25T03:12:54;5.73;;;4.63;;
32407;SDS011;18869;55.970;37.502;2023-04-25T03:15:24;11.13;;;7.20;;
32407;SDS011;18869;55.970;37.502;2023-04-25T03:17:51;10.30;;;6.17;;
32407;SDS011;18869;55.970;37.502;2023-04-25T03:20:19;10.63;;;7.50;;
32407;SDS011;18869;55.970;37.502;2023-04-25T03:22:48;14.67;;;7.73;;
32407;SDS011;18869;55.970;37.502;2023-04-25T03:25:17;14.93;;;7.67;;
32407;SDS011;18869;55.970;37.502;2023-04-25T03:27:46;16.23;;;7.93;;
32407;SDS011;18869;55.970;37.502;2023-04-25T03:30:15;19.10;;;9.73;;
32407;SDS011;18869;55.970;37.502;2023-04-25T03:32:43;15.10;;;8.87;;
32407;SDS011;18869;55.970;37.502;2023-04-25T03:35:13;18.13;;;9.70;;
32407;SDS011;18869;55.970;37.502;2023-04-25T03:37:41;13.20;;;7.47;;
32407;SDS011;18869;55.970;37.502;2023-04-25T03:40:13;10.73;;;7.27;;
32407;SDS011;18869;55.970;37.502;2023-04-25T03:42:41;14.70;;;7.80;;
32407;SDS011;18869;55.970;37.502;2023-04-25T03:45:09;8.77;;;6.00;;
32407;SDS011;18869;55.970;37.502;2023-04-25T03:47:37;9.10;;;5.70;;
32407;SDS011;18869;55.970;37.502;2023-04-25T03:50:05;10.57;;;5.20;;
32407;SDS011;18869;55.970;37.502;2023-04-25T03:52:36;12.43;;;5.87;;
32407;SDS011;18869;55.970;37.502;2023-04-25T03:55:03;10.23;;;5.37;;
32407;SDS011;18869;55.970;37.502;2023-04-25T03:57:34;8.30;;;5.43;;
32407;SDS011;18869;55.970;37.502;2023-04-25T04:00:02;11.60;;;5.60;;
32407;SDS011;18869;55.970;37.502;2023-04-25T04:02:39;7.80;;;5.70;;
32407;SDS011;18869;55.970;37.502;2023-04-25T04:05:08;9.17;;;5.80;;
32407;SDS011;18869;55.970;37.502;2023-04-25T04:07:36;11.03;;;5.67;;
32407;SDS011;18869;55.970;37.502;2023-04-25T04:10:06;11.17;;;6.03;;
32407;SDS011;18869;55.970;37.502;2023-04-25T04:12:36;10.80;;;6.00;;
32407;SDS011;18869;55.970;37.502;2023-04-25T04:15:04;14.03;;;6.30;;
32407;SDS011;18869;55.970;37.502;2023-04-25T04:17:34;17.17;;;7.93;;
32407;SDS011;18869;55.970;37.502;2023-04-25T04:20:02;17.20;;;7.73;;
32407;SDS011;18869;55.970;37.502;2023-04-25T04:22:32;13.17;;;7.53;;
32407;SDS011;18869;55.970;37.502;2023-04-25T04:25:00;11.50;;;6.63;;
32407;SDS011;18869;55.970;37.502;2023-04-25T04:27:31;16.43;;;6.93;;
32407;SDS011;18869;55.970;37.502;2023-04-25T04:30:04;12.13;;;7.70;;
32407;SDS011;18869;55.970;37.502;2023-04-25T04:32:33;10.70;;;7.67;;
32407;SDS011;18869;55.970;37.502;2023-04-25T04:35:03;13.43;;;7.97;;
32407;SDS011;18869;55.970;37.502;2023-04-25T04:37:32;15.60;;;7.57;;
32407;SDS011;18869;55.970;37.502;2023-04-25T04:40:01;18.07;;;8.50;;
32407;SDS011;18869;55.970;37.502;2023-04-25T04:42:32;25.57;;;8.63;;
32407;SDS011;18869;55.970;37.502;2023-04-25T04:45:03;15.70;;;8.20;;
32407;SDS011;18869;55.970;37.502;2023-04-25T04:47:33;16.47;;;8.60;;
32407;SDS011;18869;55.970;37.502;2023-04-25T04:50:03;17.93;;;8.30;;
32407;SDS011;18869;55.970;37.502;2023-04-25T04:52:35;14.57;;;7.80;;
32407;SDS011;18869;55.970;37.502;2023-04-25T04:55:05;16.73;;;8.13;;
32407;SDS011;18869;55.970;37.502;2023-04-25T04:57:34;18.60;;;7.83;;
32407;SDS011;18869;55.970;37.502;2023-04-25T05:00:01;12.60;;;8.23;;
32407;SDS011;18869;55.970;37.502;2023-04-25T05:02:38;16.17;;;7.83;;
32407;SDS011;18869;55.970;37.502;2023-04-25T05:05:06;18.43;;;8.13;;
32407;SDS011;18869;55.970;37.502;2023-04-25T05:07:35;13.40;;;8.30;;
32407;SDS011;18869;55.970;37.502;2023-04-25T05:10:04;15.97;;;8.43;;
32407;SDS011;18869;55.970;37.502;2023-04-25T05:12:32;14.20;;;9.07;;
32407;SDS011;18869;55.970;37.502;2023-04-25T05:15:01;19.03;;;10.03;;
32407;SDS011;18869;55.970;37.502;2023-04-25T05:17:35;19.33;;;9.10;;
32407;SDS011;18869;55.970;37.502;2023-04-25T05:20:04;18.60;;;9.63;;
32407;SDS011;18869;55.970;37.502;2023-04-25T05:22:36;19.57;;;9.07;;
32407;SDS011;18869;55.970;37.502;2023-04-25T05:25:05;17.33;;;7.70;;
32407;SDS011;18869;55.970;37.502;2023-04-25T05:27:33;15.53;;;8.63;;
32407;SDS011;18869;55.970;37.502;2023-04-25T05:30:03;15.10;;;8.03;;
32407;SDS011;18869;55.970;37.502;2023-04-25T05:32:34;16.10;;;8.67;;
32407;SDS011;18869;55.970;37.502;2023-04-25T05:35:02;14.53;;;7.97;;
32407;SDS011;18869;55.970;37.502;2023-04-25T05:37:32;16.03;;;6.97;;
32407;SDS011;18869;55.970;37.502;2023-04-25T05:40:02;13.10;;;7.27;;
32407;SDS011;18869;55.970;37.502;2023-04-25T05:42:33;12.40;;;7.57;;
32407;SDS011;18869;55.970;37.502;2023-04-25T05:45:01;12.52;;;7.03;;
32407;SDS011;18869;55.970;37.502;2023-04-25T05:47:31;12.95;;;6.82;;
32407;SDS011;18869;55.970;37.502;2023-04-25T05:50:01;11.43;;;6.40;;
32407;SDS011;18869;55.970;37.502;2023-04-25T05:52:30;11.12;;;6.72;;
32407;SDS011;18869;55.970;37.502;2023-04-25T05:54:58;9.75;;;6.75;;
32407;SDS011;18869;55.970;37.502;2023-04-25T05:57:26;12.70;;;7.83;;
32407;SDS011;18869;55.970;37.502;2023-04-25T05:59:54;13.30;;;6.47;;
32407;SDS011;18869;55.970;37.502;2023-04-25T06:02:22;9.37;;;6.40;;
32407;SDS011;18869;55.970;37.502;2023-04-25T06:04:51;12.43;;;7.20;;
32407;SDS011;18869;55.970;37.502;2023-04-25T06:07:23;14.73;;;6.83;;
32407;SDS011;18869;55.970;37.502;2023-04-25T06:09:51;15.93;;;6.90;;
32407;SDS011;18869;55.970;37.502;2023-04-25T06:12:19;12.20;;;6.80;;
32407;SDS011;18869;55.970;37.502;2023-04-25T06:14:52;8.00;;;6.33;;
32407;SDS011;18869;55.970;37.502;2023-04-25T06:17:20;12.40;;;7.00;;
32407;SDS011;18869;55.970;37.502;2023-04-25T06:19:48;10.33;;;6.20;;
32407;SDS011;18869;55.970;37.502;2023-04-25T06:22:19;9.65;;;6.10;;
32407;SDS011;18869;55.970;37.502;2023-04-25T06:24:48;9.20;;;5.30;;
32407;SDS011;18869;55.970;37.502;2023-04-25T06:27:16;6.68;;;5.53;;
32407;SDS011;18869;55.970;37.502;2023-04-25T06:29:44;10.38;;;4.72;;
32407;SDS011;18869;55.970;37.502;2023-04-25T06:32:11;9.48;;;4.82;;
32407;SDS011;18869;55.970;37.502;2023-04-25T06:34:41;8.93;;;4.90;;
32407;SDS011;18869;55.970;37.502;2023-04-25T06:37:09;5.72;;;4.47;;
32407;SDS011;18869;55.970;37.502;2023-04-25T06:39:36;7.18;;;5.22;;
32407;SDS011;18869;55.970;37.502;2023-04-25T06:42:05;7.78;;;5.20;;
32407;SDS011;18869;55.970;37.502;2023-04-25T06:44:35;6.47;;;4.62;;
32407;SDS011;18869;55.970;37.502;2023-04-25T06:47:03;6.90;;;4.18;;
32407;SDS011;18869;55.970;37.502;2023-04-25T06:49:31;10.63;;;4.55;;
32407;SDS011;18869;55.970;37.502;2023-04-25T06:52:00;6.65;;;4.03;;
32407;SDS011;18869;55.970;37.502;2023-04-25T06:54:28;5.40;;;3.55;;
32407;SDS011;18869;55.970;37.502;2023-04-25T06:56:58;5.90;;;3.97;;
32407;SDS011;18869;55.970;37.502;2023-04-25T06:59:28;5.35;;;4.25;;
32407;SDS011;18869;55.970;37.502;2023-04-25T07:02:00;8.40;;;3.42;;
32407;SDS011;18869;55.970;37.502;2023-04-25T07:04:29;7.70;;;4.37;;
32407;SDS011;18869;55.970;37.502;2023-04-25T07:07:01;7.15;;;3.45;;
32407;SDS011;18869;55.970;37.502;2023-04-25T07:09:31;4.47;;;3.10;;
32407;SDS011;18869;55.970;37.502;2023-04-25T07:12:02;6.50;;;3.58;;
32407;SDS011;18869;55.970;37.502;2023-04-25T07:14:32;5.50;;;3.42;;
32407;SDS011;18869;55.970;37.502;2023-04-25T07:17:00;6.47;;;3.65;;
32407;SDS011;18869;55.970;37.502;2023-04-25T07:19:28;5.25;;;3.33;;
32407;SDS011;18869;55.970;37.502;2023-04-25T07:21:57;5.15;;;3.58;;
32407;SDS011;18869;55.970;37.502;2023-04-25T07:24:25;9.50;;;3.35;;
32407;SDS011;18869;55.970;37.502;2023-04-25T07:26:55;4.07;;;2.95;;
32407;SDS011;18869;55.970;37.502;2023-04-25T07:29:24;4.68;;;3.03;;
32407;SDS011;18869;55.970;37.502;2023-04-25T07:31:53;7.18;;;3.33;;
32407;SDS011;18869;55.970;37.502;2023-04-25T07:34:20;8.25;;;3.83;;
32407;SDS011;18869;55.970;37.502;2023-04-25T07:36:49;4.10;;;3.50;;
32407;SDS011;18869;55.970;37.502;2023-04-25T07:39:16;3.25;;;2.58;;
32407;SDS011;18869;55.970;37.502;2023-04-25T07:41:44;5.53;;;2.80;;
32407;SDS011;18869;55.970;37.502;2023-04-25T07:44:13;5.30;;;3.30;;
32407;SDS011;18869;55.970;37.502;2023-04-25T07:46:40;5.43;;;2.92;;
32407;SDS011;18869;55.970;37.502;2023-04-25T07:49:09;7.45;;;3.08;;
32407;SDS011;18869;55.970;37.502;2023-04-25T07:51:39;4.70;;;3.20;;
32407;SDS011;18869;55.970;37.502;2023-04-25T07:54:07;5.40;;;3.05;;
32407;SDS011;18869;55.970;37.502;2023-04-25T07:56:35;4.20;;;3.00;;
32407;SDS011;18869;55.970;37.502;2023-04-25T07:59:03;7.53;;;2.80;;
32407;SDS011;18869;55.970;37.502;2023-04-25T08:01:33;7.93;;;3.47;;
32407;SDS011;18869;55.970;37.502;2023-04-25T08:04:02;12.37;;;3.12;;
32407;SDS011;18869;55.970;37.502;2023-04-25T08:06:35;6.18;;;3.17;;
32407;SDS011;18869;55.970;37.502;2023-04-25T08:09:04;6.35;;;3.03;;
32407;SDS011;18869;55.970;37.502;2023-04-25T08:11:33;6.10;;;2.83;;
32407;SDS011;18869;55.970;37.502;2023-04-25T08:14:03;7.87;;;3.47;;
32407;SDS011;18869;55.970;37.502;2023-04-25T08:16:32;5.87;;;3.08;;
32407;SDS011;18869;55.970;37.502;2023-04-25T08:19:02;6.93;;;3.28;;
32407;SDS011;18869;55.970;37.502;2023-04-25T08:21:30;6.40;;;3.08;;
32407;SDS011;18869;55.970;37.502;2023-04-25T08:24:00;8.15;;;3.55;;
32407;SDS011;18869;55.970;37.502;2023-04-25T08:26:28;6.60;;;3.25;;
32407;SDS011;18869;55.970;37.502;2023-04-25T08:28:56;3.70;;;3.08;;
32407;SDS011;18869;55.970;37.502;2023-04-25T08:31:24;5.03;;;3.58;;
32407;SDS011;18869;55.970;37.502;2023-04-25T08:33:53;10.23;;;3.70;;
32407;SDS011;18869;55.970;37.502;2023-04-25T08:36:20;6.03;;;3.30;;
32407;SDS011;18869;55.970;37.502;2023-04-25T08:38:51;4.40;;;3.17;;
32407;SDS011;18869;55.970;37.502;2023-04-25T08:41:22;11.35;;;3.20;;
32407;SDS011;18869;55.970;37.502;2023-04-25T08:43:50;5.32;;;3.10;;
32407;SDS011;18869;55.970;37.502;2023-04-25T08:46:19;8.57;;;3.70;;
32407;SDS011;18869;55.970;37.502;2023-04-25T08:48:47;7.83;;;3.53;;
32407;SDS011;18869;55.970;37.502;2023-04-25T08:51:20;9.83;;;3.80;;
32407;SDS011;18869;55.970;37.502;2023-04-25T08:53:54;10.10;;;3.47;;
32407;SDS011;18869;55.970;37.502;2023-04-25T08:56:25;6.25;;;3.33;;
32407;SDS011;18869;55.970;37.502;2023-04-25T08:58:54;6.43;;;3.20;;
32407;SDS011;18869;55.970;37.502;2023-04-25T09:01:22;6.83;;;3.90;;
32407;SDS011;18869;55.970;37.502;2023-04-25T09:03:50;5.40;;;2.80;;
32407;SDS011;18869;55.970;37.502;2023-04-25T09:06:18;7.97;;;3.23;;
32407;SDS011;18869;55.970;37.502;2023-04-25T09:08:49;6.30;;;3.87;;
32407;SDS011;18869;55.970;37.502;2023-04-25T09:11:17;5.30;;;2.97;;
32407;SDS011;18869;55.970;37.502;2023-04-25T09:13:47;8.47;;;3.77;;
32407;SDS011;18869;55.970;37.502;2023-04-25T09:16:15;6.57;;;3.33;;
32407;SDS011;18869;55.970;37.502;2023-04-25T09:18:45;5.23;;;3.10;;
32407;SDS011;18869;55.970;37.502;2023-04-25T09:21:15;6.53;;;2.67;;
32407;SDS011;18869;55.970;37.502;2023-04-25T09:23:44;5.47;;;3.30;;
32407;SDS011;18869;55.970;37.502;2023-04-25T09:26:14;6.82;;;3.15;;
32407;SDS011;18869;55.970;37.502;2023-04-25T09:28:43;6.25;;;2.90;;
32407;SDS011;18869;55.970;37.502;2023-04-25T09:31:20;5.35;;;3.25;;
32407;SDS011;18869;55.970;37.502;2023-04-25T09:33:58;4.05;;;3.65;;
32407;SDS011;18869;55.970;37.502;2023-04-25T09:36:27;9.70;;;6.00;;
32407;SDS011;18869;55.970;37.502;2023-04-25T09:38:57;4.22;;;3.87;;
32407;SDS011;18869;55.970;37.502;2023-04-25T09:41:28;7.85;;;4.50;;
32407;SDS011;18869;55.970;37.502;2023-04-25T09:43:56;4.60;;;4.07;;
32407;SDS011;18869;55.970;37.502;2023-04-25T09:46:32;4.37;;;3.15;;
32407;SDS011;18869;55.970;37.502;2023-04-25T09:49:06;5.80;;;3.00;;
32407;SDS011;18869;55.970;37.502;2023-04-25T09:51:36;6.28;;;3.60;;
32407;SDS011;18869;55.970;37.502;2023-04-25T09:54:04;7.62;;;5.80;;
32407;SDS011;18869;55.970;37.502;2023-04-25T09:56:35;8.45;;;5.32;;
32407;SDS011;18869;55.970;37.502;2023-04-25T09:59:04;7.35;;;4.72;;
32407;SDS011;18869;55.970;37.502;2023-04-25T10:01:36;8.50;;;5.57;;
32407;SDS011;18869;55.970;37.502;2023-04-25T10:04:07;5.93;;;4.43;;
32407;SDS011;18869;55.970;37.502;2023-04-25T10:06:39;7.87;;;4.27;;
32407;SDS011;18869;55.970;37.502;2023-04-25T10:09:07;7.00;;;3.67;;
32407;SDS011;18869;55.970;37.502;2023-04-25T10:11:35;4.77;;;3.53;;
32407;SDS011;18869;55.970;37.502;2023-04-25T10:14:05;10.50;;;5.07;;
32407;SDS011;18869;55.970;37.502;2023-04-25T10:16:33;5.60;;;3.13;;
32407;SDS011;18869;55.970;37.502;2023-04-25T10:19:03;7.20;;;4.60;;
32407;SDS011;18869;55.970;37.502;2023-04-25T10:21:31;6.40;;;3.70;;
32407;SDS011;18869;55.970;37.502;2023-04-25T10:24:01;7.43;;;4.23;;
32407;SDS011;18869;55.970;37.502;2023-04-25T10:26:30;5.47;;;3.97;;
32407;SDS011;18869;55.970;37.502;2023-04-25T10:28:59;5.10;;;4.20;;
32407;SDS011;18869;55.970;37.502;2023-04-25T10:31:30;5.00;;;2.90;;
32407;SDS011;18869;55.970;37.502;2023-04-25T10:34:00;4.90;;;2.50;;
32407;SDS011;18869;55.970;37.502;2023-04-25T10:36:31;6.27;;;2.40;;
32407;SDS011;18869;55.970;37.502;2023-04-25T10:39:02;5.00;;;3.00;;
32407;SDS011;18869;55.970;37.502;2023-04-25T10:41:45;6.70;;;2.43;;
32407;SDS011;18869;55.970;37.502;2023-04-25T10:44:16;2.53;;;2.33;;
32407;SDS011;18869;55.970;37.502;2023-04-25T10:46:44;3.47;;;2.10;;
32407;SDS011;18869;55.970;37.502;2023-04-25T10:49:27;8.53;;;2.30;;
32407;SDS011;18869;55.970;37.502;2023-04-25T10:52:13;8.30;;;2.53;;
32407;SDS011;18869;55.970;37.502;2023-04-25T10:54:43;2.60;;;2.17;;
32407;SDS011;18869;55.970;37.502;2023-04-25T10:59:58;3.53;;;2.00;;
32407;SDS011;18869;55.970;37.502;2023-04-25T11:02:36;2.17;;;1.97;;
32407;SDS011;18869;55.970;37.502;2023-04-25T11:05:07;4.83;;;2.10;;
32407;SDS011;18869;55.970;37.502;2023-04-25T11:07:43;3.90;;;2.97;;
32407;SDS011;18869;55.970;37.502;2023-04-25T11:10:13;3.00;;;2.10;;
32407;SDS011;18869;55.970;37.502;2023-04-25T11:12:42;3.70;;;2.27;;
32407;SDS011;18869;55.970;37.502;2023-04-25T11:15:10;4.63;;;2.10;;
32407;SDS011;18869;55.970;37.502;2023-04-25T11:17:38;3.17;;;2.50;;
32407;SDS011;18869;55.970;37.502;2023-04-25T11:20:08;2.67;;;2.00;;
32407;SDS011;18869;55.970;37.502;2023-04-25T11:22:37;5.77;;;2.73;;
32407;SDS011;18869;55.970;37.502;2023-04-25T11:25:07;5.47;;;2.40;;
32407;SDS011;18869;55.970;37.502;2023-04-25T11:27:37;3.63;;;2.40;;
32407;SDS011;18869;55.970;37.502;2023-04-25T11:30:11;6.73;;;2.73;;
32407;SDS011;18869;55.970;37.502;2023-04-25T11:32:40;4.33;;;2.43;;
32407;SDS011;18869;55.970;37.502;2023-04-25T11:35:10;4.70;;;2.00;;
32407;SDS011;18869;55.970;37.502;2023-04-25T11:37:38;7.17;;;2.70;;
32407;SDS011;18869;55.970;37.502;2023-04-25T11:40:07;3.97;;;2.30;;
32407;SDS011;18869;55.970;37.502;2023-04-25T11:42:36;4.00;;;2.10;;
32407;SDS011;18869;55.970;37.502;2023-04-25T11:45:06;3.97;;;2.67;;
32407;SDS011;18869;55.970;37.502;2023-04-25T11:47:35;2.73;;;2.30;;
32407;SDS011;18869;55.970;37.502;2023-04-25T11:50:03;5.93;;;2.40;;
32407;SDS011;18869;55.970;37.502;2023-04-25T11:52:39;3.97;;;2.50;;
32407;SDS011;18869;55.970;37.502;2023-04-25T11:55:08;3.33;;;2.43;;
32407;SDS011;18869;55.970;37.502;2023-04-25T11:57:37;3.07;;;2.40;;
32407;SDS011;18869;55.970;37.502;2023-04-25T12:00:07;3.60;;;2.07;;
32407;SDS011;18869;55.970;37.502;2023-04-25T12:02:42;5.27;;;2.30;;
32407;SDS011;18869;55.970;37.502;2023-04-25T12:05:11;2.37;;;2.17;;
32407;SDS011;18869;55.970;37.502;2023-04-25T12:07:42;7.57;;;3.10;;
32407;SDS011;18869;55.970;37.502;2023-04-25T12:10:11;2.17;;;1.93;;
32407;SDS011;18869;55.970;37.502;2023-04-25T12:12:41;4.77;;;2.20;;
32407;SDS011;18869;55.970;37.502;2023-04-25T12:15:13;4.67;;;1.83;;
32407;SDS011;18869;55.970;37.502;2023-04-25T12:17:44;4.77;;;2.70;;
32407;SDS011;18869;55.970;37.502;2023-04-25T12:20:14;5.30;;;2.50;;
32407;SDS011;18869;55.970;37.502;2023-04-25T12:22:44;3.60;;;2.47;;
32407;SDS011;18869;55.970;37.502;2023-04-25T12:25:13;5.03;;;2.20;;
32407;SDS011;18869;55.970;37.502;2023-04-25T12:28:09;5.50;;;2.20;;
32407;SDS011;18869;55.970;37.502;2023-04-25T12:30:56;5.33;;;2.20;;
32407;SDS011;18869;55.970;37.502;2023-04-25T12:33:24;4.17;;;2.90;;
32407;SDS011;18869;55.970;37.502;2023-04-25T12:35:56;5.43;;;2.90;;
32407;SDS011;18869;55.970;37.502;2023-04-25T12:38:28;3.83;;;2.43;;
32407;SDS011;18869;55.970;37.502;2023-04-25T12:40:57;4.10;;;2.60;;
32407;SDS011;18869;55.970;37.502;2023-04-25T12:43:25;2.97;;;2.20;;
32407;SDS011;18869;55.970;37.502;2023-04-25T12:45:53;10.77;;;3.33;;
32407;SDS011;18869;55.970;37.502;2023-04-25T12:48:22;6.63;;;3.50;;
32407;SDS011;18869;55.970;37.502;2023-04-25T12:50:50;4.30;;;2.93;;
32407;SDS011;18869;55.970;37.502;2023-04-25T12:53:19;10.53;;;4.07;;
32407;SDS011;18869;55.970;37.502;2023-04-25T12:55:49;5.57;;;3.63;;
32407;SDS011;18869;55.970;37.502;2023-04-25T12:58:17;5.13;;;2.47;;
32407;SDS011;18869;55.970;37.502;2023-04-25T13:00:45;2.77;;;2.40;;
32407;SDS011;18869;55.970;37.502;2023-04-25T13:03:14;4.67;;;2.57;;
32407;SDS011;18869;55.970;37.502;2023-04-25T13:05:43;4.23;;;2.73;;
32407;SDS011;18869;55.970;37.502;2023-04-25T13:08:10;6.07;;;3.00;;
32407;SDS011;18869;55.970;37.502;2023-04-25T13:10:38;4.73;;;3.60;;
32407;SDS011;18869;55.970;37.502;2023-04-25T13:13:07;3.90;;;2.70;;
32407;SDS011;18869;55.970;37.502;2023-04-25T13:15:39;4.33;;;2.77;;
32407;SDS011;18869;55.970;37.502;2023-04-25T13:18:07;4.47;;;2.60;;
32407;SDS011;18869;55.970;37.502;2023-04-25T13:20:35;5.40;;;2.50;;
32407;SDS011;18869;55.970;37.502;2023-04-25T13:23:06;3.30;;;2.30;;
32407;SDS011;18869;55.970;37.502;2023-04-25T13:25:34;5.63;;;2.97;;
32407;SDS011;18869;55.970;37.502;2023-04-25T13:28:02;5.87;;;2.87;;
32407;SDS011;18869;55.970;37.502;2023-04-25T13:30:32;4.50;;;2.90;;
32407;SDS011;18869;55.970;37.502;2023-04-25T13:32:59;3.13;;;2.33;;
32407;SDS011;18869;55.970;37.502;2023-04-25T13:35:29;6.33;;;2.90;;
32407;SDS011;18869;55.970;37.502;2023-04-25T13:37:56;4.57;;;2.60;;
32407;SDS011;18869;55.970;37.502;2023-04-25T13:40:24;6.30;;;3.83;;
32407;SDS011;18869;55.970;37.502;2023-04-25T13:42:53;5.27;;;3.40;;
32407;SDS011;18869;55.970;37.502;2023-04-25T13:45:20;7.90;;;4.10;;
32407;SDS011;18869;55.970;37.502;2023-04-25T13:47:50;6.87;;;4.60;;
32407;SDS011;18869;55.970;37.502;2023-04-25T13:50:18;7.30;;;3.93;;
32407;SDS011;18869;55.970;37.502;2023-04-25T13:52:47;5.50;;;3.30;;
32407;SDS011;18869;55.970;37.502;2023-04-25T13:55:15;11.80;;;3.50;;
32407;SDS011;18869;55.970;37.502;2023-04-25T13:57:43;4.20;;;3.20;;
32407;SDS011;18869;55.970;37.502;2023-04-25T14:00:11;5.70;;;3.37;;
32407;SDS011;18869;55.970;37.502;2023-04-25T14:02:40;5.53;;;3.17;;
32407;SDS011;18869;55.970;37.502;2023-04-25T14:05:09;3.73;;;3.40;;
32407;SDS011;18869;55.970;37.502;2023-04-25T14:07:37;7.73;;;3.50;;
32407;SDS011;18869;55.970;37.502;2023-04-25T14:10:05;4.87;;;3.13;;
32407;SDS011;18869;55.970;37.502;2023-04-25T14:12:35;5.93;;;3.47;;
32407;SDS011;18869;55.970;37.502;2023-04-25T14:15:07;4.77;;;3.40;;
32407;SDS011;18869;55.970;37.502;2023-04-25T14:17:34;4.87;;;3.20;;
32407;SDS011;18869;55.970;37.502;2023-04-25T14:20:02;6.13;;;3.67;;
32407;SDS011;18869;55.970;37.502;2023-04-25T14:22:33;4.43;;;3.00;;
32407;SDS011;18869;55.970;37.502;2023-04-25T14:25:01;3.10;;;2.80;;
32407;SDS011;18869;55.970;37.502;2023-04-25T14:27:29;4.60;;;2.47;;
32407;SDS011;18869;55.970;37.502;2023-04-25T14:29:57;5.13;;;3.33;;
32407;SDS011;18869;55.970;37.502;2023-04-25T14:32:24;3.53;;;2.80;;
32407;SDS011;18869;55.970;37.502;2023-04-25T14:34:52;3.53;;;2.50;;
32407;SDS011;18869;55.970;37.502;2023-04-25T14:37:20;3.20;;;2.90;;
32407;SDS011;18869;55.970;37.502;2023-04-25T14:39:49;4.30;;;2.83;;
32407;SDS011;18869;55.970;37.502;2023-04-25T14:42:18;3.50;;;2.50;;
32407;SDS011;18869;55.970;37.502;2023-04-25T14:44:47;3.80;;;2.70;;